Time;durP1;ratioP1;P1;durP2;ratioP2;P2;SDS_P1;SDS_P2;PMS_P1;PMS_P2;Temp;Humidity;BMP_temperature;BMP_pressure;BME280_temperature;BME280_humidity;BME280_pressure;Samples;Min_cycle;Max_cycle;Signal;HPM_P1;HPM_P2
2021/05/13 00:24:20;;;;;;;14.60;4.67;;;13.20;99.90;;;;;;4918231;29;20067;-89
2021/05/13 00:26:49;;;;;;;16.58;3.70;;;13.20;99.90;;;;;;4913927;29;20044;-89
2021/05/13 00:29:26;;;;;;;17.73;3.90;;;13.20;99.90;;;;;;4912431;29;20067;-89
2021/05/13 00:31:57;;;;;;;8.50;2.97;;;13.20;99.90;;;;;;4924259;29;20048;-90
2021/05/13 00:34:26;;;;;;;9.65;4.53;;;13.20;99.90;;;;;;4926211;29;20063;-89
2021/05/13 00:36:55;;;;;;;17.70;4.70;;;13.30;99.90;;;;;;4889649;29;20491;-91
2021/05/13 00:39:25;;;;;;;11.95;3.22;;;13.20;99.90;;;;;;4920756;29;20056;-88
2021/05/13 00:42:01;;;;;;;11.63;3.60;;;13.20;99.90;;;;;;4904012;29;20067;-90
2021/05/13 00:44:36;;;;;;;17.80;4.63;;;13.10;99.90;;;;;;4873106;29;20451;-90
2021/05/13 00:47:14;;;;;;;11.73;4.03;;;13.20;99.90;;;;;;4910931;29;20510;-89
2021/05/13 00:49:45;;;;;;;11.13;2.97;;;13.20;99.90;;;;;;4905108;29;20056;-89
2021/05/13 00:52:14;;;;;;;12.63;3.53;;;13.20;99.90;;;;;;4910952;29;20063;-89
2021/05/13 00:54:52;;;;;;;20.40;4.47;;;13.20;99.90;;;;;;4922637;29;20048;-90
2021/05/13 00:57:28;;;;;;;21.73;4.75;;;13.20;99.90;;;;;;4897420;29;20550;-89
2021/05/13 01:00:07;;;;;;;11.90;4.45;;;13.20;99.90;;;;;;4924212;29;20437;-89
2021/05/13 01:02:36;;;;;;;21.20;4.95;;;13.20;99.90;;;;;;4908887;29;20048;-90
2021/05/13 01:05:35;;;;;;;18.60;4.00;;;13.20;99.90;;;;;;4901344;29;20057;-89
2021/05/13 01:08:06;;;;;;;12.38;4.38;;;13.20;99.90;;;;;;4921429;29;20067;-89
2021/05/13 01:10:39;;;;;;;21.30;6.70;;;13.10;99.90;;;;;;4905557;29;20067;-89
2021/05/13 01:13:17;;;;;;;19.02;5.63;;;13.10;99.90;;;;;;4907250;29;20064;-88
2021/05/13 01:16:23;;;;;;;11.82;4.25;;;13.10;99.90;;;;;;4902714;29;20057;-90
2021/05/13 01:19:17;;;;;;;13.73;5.88;;;13.10;99.90;;;;;;4893773;29;20048;-91
2021/05/13 01:21:52;;;;;;;17.45;4.57;;;13.10;99.90;;;;;;4887995;29;20066;-90
2021/05/13 01:24:26;;;;;;;16.67;4.97;;;13.00;99.90;;;;;;4880340;29;20048;-90
2021/05/13 01:27:01;;;;;;;14.65;4.78;;;13.00;99.90;;;;;;4884597;29;20048;-92
2021/05/13 01:29:46;;;;;;;15.05;4.30;;;13.00;99.90;;;;;;4906735;29;20061;-90
2021/05/13 01:32:26;;;;;;;17.70;4.95;;;13.00;99.90;;;;;;4914548;29;20057;-89
2021/05/13 01:35:04;;;;;;;12.95;6.28;;;13.00;99.90;;;;;;4900601;29;20053;-92
2021/05/13 01:37:33;;;;;;;12.55;4.32;;;13.00;99.90;;;;;;4877964;29;20392;-89
2021/05/13 01:40:02;;;;;;;11.50;5.00;;;13.00;99.90;;;;;;4887137;29;20060;-90
2021/05/13 01:42:31;;;;;;;14.55;5.28;;;13.00;99.90;;;;;;4904312;29;20055;-91
2021/05/13 01:44:59;;;;;;;21.40;6.32;;;13.00;99.90;;;;;;4887556;29;20067;-91
2021/05/13 01:47:35;;;;;;;15.25;6.10;;;13.10;99.90;;;;;;4897314;29;20057;-88
2021/05/13 01:50:05;;;;;;;12.55;5.18;;;13.20;99.90;;;;;;4885256;29;20076;-89
2021/05/13 01:52:36;;;;;;;20.65;5.28;;;13.00;99.90;;;;;;4904470;29;20408;-90
2021/05/13 01:55:05;;;;;;;16.50;5.18;;;13.00;99.90;;;;;;4884367;29;20052;-90
2021/05/13 01:57:33;;;;;;;11.48;4.75;;;13.00;99.90;;;;;;4871496;29;20049;-90
2021/05/13 02:00:04;;;;;;;13.98;5.20;;;13.00;99.90;;;;;;4887624;29;20056;-89
2021/05/13 02:02:35;;;;;;;19.08;5.90;;;13.00;99.90;;;;;;4898592;29;20065;-88
2021/05/13 02:05:04;;;;;;;12.15;5.05;;;13.00;99.90;;;;;;4910709;29;20042;-91
2021/05/13 02:07:35;;;;;;;19.15;4.93;;;13.00;99.90;;;;;;4900012;29;20080;-89
2021/05/13 02:10:04;;;;;;;18.30;5.22;;;13.00;99.90;;;;;;4893787;29;20055;-88
2021/05/13 02:12:40;;;;;;;19.80;5.80;;;13.20;99.90;;;;;;4888903;29;20049;-91
2021/05/13 02:15:14;;;;;;;28.35;8.63;;;13.00;99.90;;;;;;4897631;29;20059;-88
2021/05/13 02:17:42;;;;;;;19.63;7.22;;;13.00;99.90;;;;;;4903057;29;20045;-89
2021/05/13 02:20:16;;;;;;;12.38;5.65;;;13.00;99.90;;;;;;4902521;29;20071;-90
2021/05/13 02:22:47;;;;;;;21.58;7.13;;;13.00;99.90;;;;;;4914654;29;20152;-88
2021/05/13 02:25:15;;;;;;;24.83;6.65;;;13.00;99.90;;;;;;4917026;29;20072;-87
2021/05/13 02:27:44;;;;;;;21.38;6.00;;;13.00;99.90;;;;;;4903642;29;20060;-88
2021/05/13 02:30:16;;;;;;;17.25;6.97;;;13.20;99.90;;;;;;4892674;29;20063;-89
2021/05/13 02:32:45;;;;;;;17.35;6.50;;;13.00;99.90;;;;;;4887849;29;20053;-87
2021/05/13 02:35:15;;;;;;;18.48;7.35;;;13.00;99.90;;;;;;4889416;29;20061;-89
2021/05/13 02:37:43;;;;;;;17.60;7.53;;;13.00;99.90;;;;;;4892563;29;20103;-90
2021/05/13 02:40:14;;;;;;;20.92;7.88;;;13.00;99.90;;;;;;4904961;29;20053;-89
2021/05/13 02:43:03;;;;;;;23.30;8.18;;;13.00;99.90;;;;;;4907165;29;20064;-88
2021/05/13 02:45:35;;;;;;;27.05;7.55;;;13.00;99.90;;;;;;4908408;29;20057;-90
2021/05/13 02:48:03;;;;;;;21.15;8.23;;;13.00;99.90;;;;;;4905710;29;20056;-90
2021/05/13 02:50:33;;;;;;;27.45;8.18;;;13.00;99.90;;;;;;4889993;29;20049;-89
2021/05/13 02:53:03;;;;;;;27.10;9.52;;;13.00;99.90;;;;;;4904582;29;20077;-90
2021/05/13 02:55:34;;;;;;;19.10;7.43;;;12.90;99.90;;;;;;4906900;29;20053;-91
2021/05/13 02:58:04;;;;;;;19.35;8.18;;;13.00;99.90;;;;;;4906989;29;20064;-90
2021/05/13 03:00:36;;;;;;;16.67;8.77;;;12.90;99.90;;;;;;4919278;29;20052;-92
2021/05/13 03:03:06;;;;;;;25.52;9.10;;;12.90;99.90;;;;;;4922757;29;20056;-89
2021/05/13 03:05:34;;;;;;;24.55;8.52;;;12.90;99.90;;;;;;4872444;29;20052;-91
2021/05/13 03:08:05;;;;;;;22.73;7.45;;;12.80;99.90;;;;;;4923464;29;20433;-90
2021/05/13 03:10:43;;;;;;;16.08;7.00;;;12.80;99.90;;;;;;4891813;29;20053;-92
2021/05/13 03:13:22;;;;;;;19.27;7.05;;;12.80;99.90;;;;;;4922117;29;20060;-90
2021/05/13 03:15:52;;;;;;;16.98;7.25;;;12.70;99.90;;;;;;4899287;29;20057;-90
2021/05/13 03:18:24;;;;;;;20.60;8.50;;;12.70;99.90;;;;;;4908659;29;20045;-91
2021/05/13 03:21:00;;;;;;;19.08;7.28;;;12.70;99.90;;;;;;4897375;29;20061;-92
2021/05/13 03:24:16;;;;;;;22.48;8.85;;;12.70;99.90;;;;;;4916289;29;20056;-90
2021/05/13 03:26:40;;;;;;;18.85;6.35;;;12.60;99.90;;;;;;4913443;29;20048;-88
2021/05/13 03:29:09;;;;;;;21.67;8.98;;;12.60;99.90;;;;;;4909279;29;20067;-90
2021/05/13 03:31:38;;;;;;;21.80;9.52;;;12.60;99.90;;;;;;4895433;29;20053;-88
2021/05/13 03:34:08;;;;;;;21.75;8.70;;;12.60;99.90;;;;;;4920918;29;20071;-88
2021/05/13 03:36:38;;;;;;;20.88;9.63;;;12.50;99.90;;;;;;4912247;29;20052;-88
2021/05/13 03:39:09;;;;;;;20.67;7.82;;;12.50;99.90;;;;;;4923628;29;20064;-89
2021/05/13 03:41:41;;;;;;;28.63;9.18;;;12.60;99.90;;;;;;4907483;29;20047;-89
2021/05/13 03:44:11;;;;;;;21.88;8.90;;;12.60;99.90;;;;;;4895456;29;20048;-88
2021/05/13 03:46:40;;;;;;;20.40;8.98;;;12.70;99.90;;;;;;4906504;29;20063;-89
2021/05/13 03:49:09;;;;;;;28.13;11.88;;;12.30;99.90;;;;;;4922665;29;20052;-89
2021/05/13 03:51:37;;;;;;;17.40;9.10;;;13.10;99.90;;;;;;4901579;29;20052;-93
2021/05/13 03:54:06;;;;;;;20.80;9.32;;;12.50;99.90;;;;;;4903139;29;20153;-91
2021/05/13 03:56:39;;;;;;;24.52;11.43;;;12.60;99.90;;;;;;4886737;29;20569;-90
2021/05/13 03:59:15;;;;;;;36.42;13.32;;;12.60;99.90;;;;;;4909287;29;20492;-89
2021/05/13 04:02:01;;;;;;;25.75;12.68;;;12.60;99.90;;;;;;4896188;29;20133;-90
2021/05/13 04:04:37;;;;;;;26.25;12.02;;;12.60;99.90;;;;;;4899322;29;20052;-91
2021/05/13 04:07:07;;;;;;;27.27;13.85;;;13.40;99.90;;;;;;4918402;29;20124;-92
2021/05/13 04:09:52;;;;;;;39.65;14.10;;;12.60;99.90;;;;;;4878507;29;20052;-91
2021/05/13 04:12:26;;;;;;;34.88;16.27;;;12.50;99.90;;;;;;4872699;29;20051;-91
2021/05/13 04:14:59;;;;;;;34.38;15.43;;;12.60;99.90;;;;;;4906055;29;20048;-91
2021/05/13 04:17:30;;;;;;;33.80;15.10;;;12.70;99.90;;;;;;4922256;29;20064;-92
2021/05/13 04:20:05;;;;;;;35.63;18.27;;;12.60;99.90;;;;;;4892456;29;20056;-89
2021/05/13 04:22:50;;;;;;;;;;;12.10;99.90;;;;;;4908758;29;20048;-90
2021/05/13 04:25:25;;;;;;;31.80;17.70;;;12.60;99.90;;;;;;4892200;29;19923;-91
2021/05/13 04:27:59;;;;;;;41.65;19.95;;;14.00;99.90;;;;;;4921002;29;20071;-91
2021/05/13 04:30:44;;;;;;;35.20;19.08;;;12.50;99.90;;;;;;4884845;29;20048;-91
2021/05/13 04:36:36;;;;;;;38.63;19.10;;;12.40;99.90;;;;;;4406973;23;10002557;-85
2021/05/13 04:39:05;;;;;;;43.78;22.88;;;12.40;99.90;;;;;;4909504;29;20629;-85
2021/05/13 04:41:33;;;;;;;47.42;22.50;;;12.40;99.90;;;;;;4894722;29;20388;-85
2021/05/13 04:44:02;;;;;;;34.67;20.70;;;12.40;99.90;;;;;;4880371;29;20056;-85
2021/05/13 04:46:31;;;;;;;51.47;24.05;;;12.40;99.90;;;;;;4879805;29;20064;-85
2021/05/13 04:51:33;;;;;;;41.00;22.15;;;11.50;99.90;;;;;;4886022;29;20389;-85
2021/05/13 04:54:01;;;;;;;39.15;20.38;;;12.40;99.90;;;;;;4883565;29;20648;-85
2021/05/13 04:56:30;;;;;;;47.92;23.88;;;12.40;99.90;;;;;;4884628;29;20510;-86
2021/05/13 04:58:59;;;;;;;35.53;21.50;;;12.30;99.90;;;;;;4905168;29;20044;-85
2021/05/13 05:01:27;;;;;;;50.85;24.05;;;12.30;99.90;;;;;;4893803;29;20063;-85
2021/05/13 05:03:54;;;;;;;46.33;26.58;;;12.40;99.90;;;;;;4878935;29;20439;-85
2021/05/13 05:06:22;;;;;;;41.55;23.60;;;12.40;99.90;;;;;;4914432;29;20118;-85
2021/05/13 05:08:50;;;;;;;48.67;25.05;;;12.40;99.90;;;;;;4884370;29;20051;-85
2021/05/13 05:11:20;;;;;;;46.08;20.45;;;12.40;99.90;;;;;;4912250;29;20062;-85
2021/05/13 05:13:49;;;;;;;35.28;21.25;;;12.50;99.90;;;;;;4882058;29;20415;-86
2021/05/13 05:16:17;;;;;;;37.15;21.42;;;12.50;99.90;;;;;;4878936;29;20060;-85
2021/05/13 05:18:45;;;;;;;40.35;24.30;;;12.60;99.90;;;;;;4881636;29;20040;-85
2021/05/13 05:21:13;;;;;;;42.58;21.02;;;12.50;99.90;;;;;;4897028;29;20056;-85
2021/05/13 05:23:41;;;;;;;32.65;19.45;;;12.60;99.90;;;;;;4881439;29;20056;-85
2021/05/13 05:26:09;;;;;;;30.90;17.30;;;12.60;99.90;;;;;;4901938;29;20048;-85
2021/05/13 05:28:36;;;;;;;37.10;17.55;;;12.60;99.90;;;;;;4902693;29;20052;-86
2021/05/13 05:31:04;;;;;;;35.75;17.60;;;12.60;99.90;;;;;;4897014;29;20154;-86
2021/05/13 05:33:32;;;;;;;36.33;18.65;;;12.60;99.90;;;;;;4865973;29;20227;-86
2021/05/13 05:36:00;;;;;;;40.30;18.17;;;12.70;99.90;;;;;;4885948;29;20060;-86
2021/05/13 05:38:28;;;;;;;43.67;19.38;;;14.60;99.90;;;;;;4892922;29;20053;-86
2021/05/13 05:40:56;;;;;;;37.88;20.25;;;12.80;99.90;;;;;;4905756;29;20040;-85
2021/05/13 05:43:24;;;;;;;35.58;18.45;;;12.90;99.90;;;;;;4911694;29;20393;-86
2021/05/13 05:45:59;;;;;;;38.15;19.60;;;12.70;99.90;;;;;;4907001;29;20141;-85
2021/05/13 05:48:27;;;;;;;33.13;19.00;;;12.70;99.90;;;;;;4897465;29;20052;-86
2021/05/13 05:50:54;;;;;;;36.28;18.38;;;12.70;99.90;;;;;;4918153;29;20075;-86
2021/05/13 05:53:22;;;;;;;32.35;16.73;;;12.70;99.90;;;;;;4899424;29;20658;-86
2021/05/13 05:55:51;;;;;;;33.80;15.63;;;12.80;99.90;;;;;;4912633;29;20052;-85
2021/05/13 05:58:19;;;;;;;36.22;15.73;;;12.80;99.90;;;;;;4919255;29;20040;-84
2021/05/13 06:00:47;;;;;;;39.67;17.80;;;12.80;99.90;;;;;;4920541;29;20055;-84
2021/05/13 06:03:14;;;;;;;37.78;16.67;;;12.80;99.90;;;;;;4874416;29;20049;-85
2021/05/13 06:05:42;;;;;;;36.38;17.52;;;12.80;99.90;;;;;;4917552;29;20048;-85
2021/05/13 06:08:11;;;;;;;37.90;16.02;;;12.90;99.90;;;;;;4908865;29;20059;-86
2021/05/13 06:10:38;;;;;;;39.88;16.13;;;12.90;99.90;;;;;;4916552;29;20062;-86
2021/05/13 06:13:08;;;;;;;31.75;15.70;;;13.00;99.90;;;;;;4932738;29;20063;-86
2021/05/13 06:15:39;;;;;;;28.55;14.85;;;13.00;99.90;;;;;;4904444;29;20079;-85
2021/05/13 06:18:07;;;;;;;36.95;18.67;;;13.10;99.90;;;;;;4913180;29;20667;-85
2021/05/13 06:20:35;;;;;;;35.88;17.17;;;13.10;99.90;;;;;;4898630;29;20059;-85
2021/05/13 06:23:04;;;;;;;49.38;19.08;;;13.10;99.90;;;;;;4880165;29;20060;-85
2021/05/13 06:25:32;;;;;;;36.88;18.33;;;13.10;99.90;;;;;;4878432;29;20053;-85
2021/05/13 06:27:59;;;;;;;33.88;17.25;;;13.10;99.90;;;;;;4895049;29;20064;-86
2021/05/13 06:30:27;;;;;;;31.88;16.70;;;13.10;99.90;;;;;;4910703;29;20523;-86
2021/05/13 06:32:55;;;;;;;39.95;18.95;;;13.10;99.90;;;;;;4888512;29;20657;-85
2021/05/13 06:35:23;;;;;;;27.65;15.52;;;12.90;99.90;;;;;;4892467;29;20052;-85
2021/05/13 06:37:51;;;;;;;33.08;18.42;;;13.00;99.90;;;;;;4879155;29;20111;-85
2021/05/13 06:40:19;;;;;;;32.70;15.88;;;13.00;99.90;;;;;;4908997;29;20604;-86
2021/05/13 06:42:46;;;;;;;31.98;18.15;;;13.10;99.90;;;;;;4887579;29;20484;-85
2021/05/13 06:45:19;;;;;;;35.17;18.17;;;13.10;99.90;;;;;;4695363;29;10001319;-85
2021/05/13 06:47:51;;;;;;;30.55;16.52;;;13.10;99.90;;;;;;4903058;29;20264;-86
2021/05/13 06:50:20;;;;;;;34.42;17.52;;;13.00;99.90;;;;;;4888159;29;20151;-86
2021/05/13 06:52:48;;;;;;;34.10;16.35;;;13.10;99.90;;;;;;4894065;29;20416;-85
2021/05/13 06:55:16;;;;;;;36.15;17.38;;;13.10;99.90;;;;;;4906166;29;20067;-88
2021/05/13 06:57:44;;;;;;;33.63;17.13;;;13.20;99.90;;;;;;4890830;29;20447;-86
2021/05/13 07:00:12;;;;;;;30.05;16.25;;;13.00;99.90;;;;;;4883261;29;20052;-85
2021/05/13 07:02:40;;;;;;;30.25;14.52;;;13.10;99.90;;;;;;4897885;29;20048;-85
2021/05/13 07:05:09;;;;;;;29.67;16.65;;;13.10;99.90;;;;;;4879183;29;20059;-90
2021/05/13 07:07:39;;;;;;;34.67;17.05;;;13.10;99.90;;;;;;4890986;29;20064;-84
2021/05/13 07:10:08;;;;;;;38.63;16.20;;;13.10;99.90;;;;;;4895048;29;20075;-84
2021/05/13 07:12:37;;;;;;;30.63;17.83;;;13.10;99.90;;;;;;4908923;29;20063;-85
2021/05/13 07:15:18;;;;;;;27.92;14.68;;;13.10;99.90;;;;;;4909729;29;20048;-84
2021/05/13 07:17:46;;;;;;;30.65;14.45;;;13.30;99.90;;;;;;4904566;29;20459;-86
2021/05/13 07:20:14;;;;;;;31.90;15.73;;;13.00;99.90;;;;;;4889623;29;20052;-85
2021/05/13 07:22:42;;;;;;;26.38;15.32;;;13.00;99.90;;;;;;4906918;29;20056;-84
2021/05/13 07:25:10;;;;;;;29.42;15.40;;;13.10;99.90;;;;;;4911336;29;20060;-86
2021/05/13 07:27:38;;;;;;;29.95;15.23;;;13.10;99.90;;;;;;4893873;29;20067;-84
2021/05/13 07:30:06;;;;;;;29.83;13.07;;;13.10;99.90;;;;;;4900884;29;20052;-88
2021/05/13 07:32:34;;;;;;;20.00;9.82;;;13.20;99.90;;;;;;4884803;29;20078;-84
2021/05/13 07:35:02;;;;;;;13.60;4.93;;;13.10;99.90;;;;;;4895016;29;20063;-84
2021/05/13 07:37:30;;;;;;;7.20;3.33;;;13.10;99.90;;;;;;4907997;29;20463;-85
2021/05/13 07:39:58;;;;;;;12.98;3.50;;;13.10;99.90;;;;;;4910197;29;20585;-85
2021/05/13 07:42:26;;;;;;;6.45;2.20;;;13.00;99.90;;;;;;4884505;29;20048;-85
2021/05/13 07:44:53;;;;;;;9.68;3.15;;;13.00;99.90;;;;;;4913093;29;20060;-84
2021/05/13 07:47:22;;;;;;;5.22;1.73;;;13.00;99.90;;;;;;4906111;29;20040;-85
2021/05/13 07:49:50;;;;;;;5.28;1.73;;;13.10;99.90;;;;;;4904279;29;20056;-85
2021/05/13 07:52:18;;;;;;;6.47;1.75;;;13.00;99.90;;;;;;4892632;29;20058;-86
2021/05/13 07:54:46;;;;;;;5.88;1.88;;;13.20;99.90;;;;;;4884392;29;20082;-85
2021/05/13 07:57:14;;;;;;;3.80;2.00;;;13.20;99.90;;;;;;4909493;29;20056;-88
2021/05/13 07:59:41;;;;;;;3.83;2.08;;;13.20;99.90;;;;;;4896484;29;20059;-86
2021/05/13 08:02:11;;;;;;;2.83;1.77;;;13.30;99.90;;;;;;4911204;29;20059;-85
2021/05/13 08:04:38;;;;;;;5.72;2.22;;;13.30;99.90;;;;;;4894668;29;20510;-84
2021/05/13 08:07:07;;;;;;;11.18;1.75;;;13.30;99.90;;;;;;4906616;29;20852;-85
2021/05/13 08:09:35;;;;;;;3.65;1.48;;;13.30;99.90;;;;;;4891453;29;20063;-85
2021/05/13 08:12:03;;;;;;;8.65;2.72;;;13.30;99.90;;;;;;4894265;29;20052;-86
2021/05/13 08:14:31;;;;;;;4.35;2.50;;;13.30;99.90;;;;;;4882435;29;20467;-84
2021/05/13 08:16:59;;;;;;;2.95;1.60;;;13.40;99.90;;;;;;4877811;29;20662;-88
2021/05/13 08:19:27;;;;;;;5.82;2.15;;;13.30;99.90;;;;;;4911372;29;20052;-84
2021/05/13 08:21:55;;;;;;;2.95;1.38;;;13.30;99.90;;;;;;4894292;29;20059;-85
2021/05/13 08:24:23;;;;;;;7.80;1.80;;;13.30;99.90;;;;;;4887485;29;20059;-84
2021/05/13 08:26:50;;;;;;;6.15;1.60;;;13.30;99.90;;;;;;4908912;29;20059;-84
2021/05/13 08:29:24;;;;;;;5.53;1.77;;;13.40;99.90;;;;;;4893427;29;20059;-85
2021/05/13 08:31:52;;;;;;;5.43;1.67;;;13.40;99.90;;;;;;4897667;29;20056;-83
2021/05/13 08:34:19;;;;;;;6.78;1.65;;;13.30;99.90;;;;;;4888269;29;20079;-86
2021/05/13 08:36:47;;;;;;;5.10;1.58;;;13.40;99.90;;;;;;4878468;29;20047;-86
2021/05/13 08:39:15;;;;;;;3.83;1.73;;;13.40;99.90;;;;;;4909136;29;20063;-88
2021/05/13 08:41:43;;;;;;;6.78;2.17;;;13.50;99.90;;;;;;4863314;29;20056;-85
2021/05/13 08:44:11;;;;;;;12.88;2.97;;;13.50;99.90;;;;;;4912779;29;20063;-85
2021/05/13 08:46:39;;;;;;;5.28;2.10;;;13.50;99.90;;;;;;4911159;29;20064;-85
2021/05/13 08:49:07;;;;;;;7.57;2.55;;;13.40;99.90;;;;;;4907911;29;20056;-86
2021/05/13 08:51:37;;;;;;;10.70;2.08;;;13.50;99.90;;;;;;4906192;29;20063;-83
2021/05/13 08:54:06;;;;;;;3.90;1.35;;;13.50;99.90;;;;;;4905743;29;20070;-85
2021/05/13 08:56:34;;;;;;;4.28;3.20;;;13.50;99.90;;;;;;4909692;29;20048;-83
2021/05/13 08:59:05;;;;;;;3.88;2.17;;;13.50;99.90;;;;;;4900931;29;20048;-85
2021/05/13 09:01:34;;;;;;;6.28;1.40;;;13.50;99.90;;;;;;4894768;29;20052;-87
2021/05/13 09:04:02;;;;;;;6.32;2.10;;;13.50;99.90;;;;;;4890126;29;20438;-85
2021/05/13 09:06:38;;;;;;;8.93;2.65;;;13.50;99.90;;;;;;4899250;29;20052;-85
2021/05/13 09:09:13;;;;;;;3.92;1.63;;;13.50;99.90;;;;;;4911577;29;20530;-84
2021/05/13 09:11:48;;;;;;;4.72;1.60;;;13.50;99.90;;;;;;4906839;29;20067;-87
2021/05/13 09:14:25;;;;;;;4.60;1.50;;;13.50;99.90;;;;;;4887008;29;20404;-84
2021/05/13 09:16:53;;;;;;;9.55;2.00;;;13.50;99.90;;;;;;4911171;29;20056;-84
2021/05/13 09:19:26;;;;;;;5.88;2.05;;;13.50;99.90;;;;;;4893564;29;20059;-85
2021/05/13 09:21:56;;;;;;;6.65;1.77;;;13.40;99.90;;;;;;4906214;29;20601;-84
2021/05/13 09:24:50;;;;;;;7.10;1.92;;;13.50;99.90;;;;;;4892046;29;20056;-85
2021/05/13 09:27:27;;;;;;;3.45;1.48;;;13.50;99.90;;;;;;4907164;29;20051;-85
2021/05/13 09:30:06;;;;;;;4.25;1.75;;;13.50;99.90;;;;;;4890337;29;20059;-85
2021/05/13 09:32:36;;;;;;;3.22;1.58;;;13.50;99.90;;;;;;4905587;29;20067;-87
2021/05/13 09:35:09;;;;;;;7.18;1.92;;;13.50;99.90;;;;;;4905830;29;20052;-85
2021/05/13 09:37:47;;;;;;;5.35;1.92;;;13.40;99.90;;;;;;4889511;29;21661;-84
2021/05/13 09:40:31;;;;;;;2.95;1.88;;;13.30;99.90;;;;;;4889323;29;20064;-86
2021/05/13 09:43:18;;;;;;;2.40;1.40;;;13.20;99.90;;;;;;4893262;29;20068;-84
2021/05/13 09:45:54;;;;;;;11.10;1.90;;;13.20;99.90;;;;;;4905850;29;20065;-85
2021/05/13 09:48:45;;;;;;;3.53;1.70;;;13.20;99.90;;;;;;4870764;29;20045;-84
2021/05/13 09:51:20;;;;;;;3.67;1.58;;;13.20;99.90;;;;;;4906626;29;20068;-84
2021/05/13 09:54:17;;;;;;;6.82;3.35;;;13.20;99.90;;;;;;4872382;29;20055;-85
2021/05/13 09:56:46;;;;;;;4.75;1.60;;;13.30;99.90;;;;;;4900112;29;20052;-84
2021/05/13 09:59:23;;;;;;;2.08;1.52;;;13.30;99.90;;;;;;4895923;29;20052;-85
2021/05/13 10:01:53;;;;;;;1.95;1.23;;;13.20;99.90;;;;;;4880123;29;20055;-85
2021/05/13 10:04:21;;;;;;;6.20;1.70;;;13.60;99.90;;;;;;4906763;29;20071;-85
2021/05/13 10:06:49;;;;;;;2.67;1.25;;;13.40;99.90;;;;;;4895669;29;20044;-88
2021/05/13 10:09:20;;;;;;;7.35;2.47;;;13.50;99.90;;;;;;4912481;29;20059;-85
2021/05/13 10:11:59;;;;;;;2.83;1.08;;;13.50;99.90;;;;;;4913051;29;20399;-84
2021/05/13 10:14:28;;;;;;;1.63;1.52;;;13.50;99.90;;;;;;4910706;29;20066;-85
2021/05/13 10:17:00;;;;;;;6.05;1.50;;;13.60;99.90;;;;;;4895698;29;20059;-84
2021/05/13 10:19:48;;;;;;;3.67;2.25;;;13.60;99.90;;;;;;4910748;29;20055;-84
2021/05/13 10:22:16;;;;;;;3.63;1.25;;;13.70;99.90;;;;;;4895638;29;20051;-85
2021/05/13 10:24:44;;;;;;;3.55;1.55;;;13.70;99.90;;;;;;4895335;29;20492;-86
2021/05/13 10:27:20;;;;;;;2.55;1.83;;;13.70;99.90;;;;;;4893241;29;20044;-84
2021/05/13 10:29:59;;;;;;;5.57;1.80;;;13.70;99.90;;;;;;4894066;29;20381;-85
2021/05/13 10:32:33;;;;;;;7.10;2.58;;;13.80;99.90;;;;;;4911364;29;20476;-84
2021/05/13 10:35:09;;;;;;;6.95;1.73;;;13.90;99.90;;;;;;4892257;29;21666;-85
2021/05/13 10:37:40;;;;;;;3.75;1.67;;;14.00;99.90;;;;;;4892226;29;20059;-85
2021/05/13 10:42:37;;;;;;;2.40;1.25;;;14.00;99.90;;;;;;4900566;29;20055;-85
2021/05/13 10:45:23;;;;;;;2.45;1.30;;;14.10;99.90;;;;;;4908677;29;20060;-85
2021/05/13 10:48:22;;;;;;;4.32;1.70;;;14.10;99.90;;;;;;4885739;29;20055;-86
2021/05/13 10:51:21;;;;;;;4.32;2.08;;;14.10;99.90;;;;;;4886207;29;20416;-84
2021/05/13 10:53:49;;;;;;;3.90;1.95;;;14.10;99.90;;;;;;4896910;29;20059;-85
2021/05/13 10:56:34;;;;;;;3.72;1.75;;;14.20;99.90;;;;;;4910150;29;20048;-85
2021/05/13 10:59:07;;;;;;;3.22;1.95;;;14.30;99.90;;;;;;4891234;29;20072;-86
2021/05/13 11:01:50;;;;;;;8.50;1.77;;;14.30;99.90;;;;;;4912692;29;20056;-87
2021/05/13 11:04:21;;;;;;;3.97;1.70;;;14.30;99.90;;;;;;4896287;29;20052;-85
2021/05/13 11:06:49;;;;;;;;;;;14.20;99.90;;;;;;4903807;29;20075;-87
2021/05/13 11:12:23;;;;;;;4.72;1.40;;;14.10;99.90;;;;;;4893515;29;20064;-85
2021/05/13 11:15:15;;;;;;;3.47;1.23;;;14.00;99.90;;;;;;4912150;29;20064;-85
2021/05/13 11:17:54;;;;;;;2.17;1.40;;;14.00;99.90;;;;;;4891991;29;20423;-87
2021/05/13 11:20:30;;;;;;;2.53;1.50;;;14.00;99.90;;;;;;4901151;29;20060;-86
2021/05/13 11:23:05;;;;;;;3.80;1.92;;;13.90;99.90;;;;;;4908658;29;20403;-85
2021/05/13 11:25:49;;;;;;;3.80;1.80;;;13.80;99.90;;;;;;4894831;29;20504;-86
2021/05/13 11:28:27;;;;;;;6.75;2.20;;;13.70;99.90;;;;;;4907603;29;20048;-86
2021/05/13 11:31:04;;;;;;;3.38;1.60;;;13.60;99.90;;;;;;4911026;29;20546;-85
2021/05/13 11:33:47;;;;;;;1.88;1.30;;;13.50;99.90;;;;;;4910779;29;20044;-84
2021/05/13 11:36:17;;;;;;;3.58;1.10;;;13.40;99.90;;;;;;4887193;29;20516;-88
2021/05/13 11:38:56;;;;;;;2.63;1.30;;;13.50;99.90;;;;;;4892794;29;20851;-86
2021/05/13 11:41:25;;;;;;;2.38;1.20;;;13.40;99.90;;;;;;4892841;29;20060;-86
2021/05/13 11:43:53;;;;;;;4.05;2.28;;;13.50;99.90;;;;;;4891835;29;20437;-87
2021/05/13 11:46:24;;;;;;;2.95;1.40;;;13.60;99.90;;;;;;4893674;29;20523;-85
2021/05/13 11:48:52;;;;;;;1.95;1.30;;;13.80;99.90;;;;;;4875503;29;20057;-90
2021/05/13 11:51:21;;;;;;;2.95;1.60;;;13.90;99.90;;;;;;4895064;29;20072;-86
2021/05/13 11:53:52;;;;;;;2.72;1.40;;;14.00;99.90;;;;;;4892234;29;20059;-86
2021/05/13 11:56:20;;;;;;;1.60;1.17;;;14.20;99.90;;;;;;4889268;29;20045;-88
2021/05/13 11:58:56;;;;;;;8.43;1.52;;;14.30;99.90;;;;;;4891718;29;20488;-86
2021/05/13 12:01:39;;;;;;;3.55;1.85;;;14.50;99.90;;;;;;4887551;29;20190;-85
2021/05/13 12:04:14;;;;;;;4.57;1.92;;;14.60;99.90;;;;;;4873001;29;20056;-87
2021/05/13 12:07:02;;;;;;;5.32;3.13;;;14.60;99.90;;;;;;4889469;29;20059;-86
2021/05/13 12:09:35;;;;;;;6.25;2.63;;;14.70;99.90;;;;;;4891393;29;20060;-87
2021/05/13 12:12:04;;;;;;;7.60;2.20;;;14.80;99.90;;;;;;4901283;29;20420;-88
2021/05/13 12:14:33;;;;;;;5.68;1.33;;;14.80;99.90;;;;;;4888564;29;20052;-88
2021/05/13 12:17:03;;;;;;;1.35;1.25;;;14.90;99.90;;;;;;4891721;29;20064;-87
2021/05/13 12:19:38;;;;;;;1.55;1.23;;;14.90;99.90;;;;;;4887122;29;20067;-85
2021/05/13 12:22:10;;;;;;;3.17;1.30;;;14.90;99.90;;;;;;4896152;29;20044;-88
2021/05/13 12:24:43;;;;;;;5.18;1.30;;;15.00;99.90;;;;;;4874603;29;20049;-88
2021/05/13 12:27:16;;;;;;;5.38;1.52;;;15.10;99.90;;;;;;4888286;29;20060;-86
2021/05/13 12:29:51;;;;;;;5.07;1.40;;;15.20;99.90;;;;;;4873057;29;20044;-86
2021/05/13 12:32:32;;;;;;;2.90;1.30;;;15.30;99.90;;;;;;4890640;29;20060;-86
2021/05/13 12:35:01;;;;;;;3.97;1.00;;;15.40;99.90;;;;;;4892533;29;20064;-90
2021/05/13 12:37:29;;;;;;;1.23;1.13;;;15.40;99.90;;;;;;4907113;29;20086;-91
2021/05/13 12:40:07;;;;;;;1.70;1.40;;;15.40;99.90;;;;;;4893086;29;20056;-85
2021/05/13 12:42:35;;;;;;;6.07;3.05;;;15.40;99.90;;;;;;4877864;29;20444;-85
2021/05/13 12:45:26;;;;;;;2.33;1.15;;;15.30;99.90;;;;;;4893135;29;20055;-86
2021/05/13 12:48:02;;;;;;;3.47;1.30;;;15.30;99.90;;;;;;4886765;29;20067;-86
2021/05/13 12:50:32;;;;;;;3.00;1.33;;;15.20;99.90;;;;;;4894574;29;20143;-87
2021/05/13 12:53:19;;;;;;;3.90;1.20;;;15.20;99.90;;;;;;4908968;29;20063;-85
2021/05/13 12:55:47;;;;;;;2.15;1.45;;;15.00;99.90;;;;;;4910222;29;20048;-85
2021/05/13 12:58:21;;;;;;;3.67;1.60;;;14.90;99.90;;;;;;4562273;29;10000413;-86
2021/05/13 13:00:53;;;;;;;5.93;2.80;;;14.70;99.90;;;;;;4907354;29;20052;-83
2021/05/13 13:03:34;;;;;;;2.95;1.25;;;14.40;99.90;;;;;;4888693;29;20063;-87
2021/05/13 13:06:14;;;;;;;2.10;1.27;;;14.20;99.90;;;;;;4906466;29;20419;-84
2021/05/13 13:08:51;;;;;;;4.55;1.65;;;13.90;99.90;;;;;;4918244;29;20047;-85
2021/05/13 13:11:38;;;;;;;3.08;1.50;;;13.80;99.90;;;;;;4912349;29;20428;-88
2021/05/13 13:14:25;;;;;;;8.13;2.00;;;13.60;99.90;;;;;;4904420;29;20063;-85
2021/05/13 13:16:53;;;;;;;4.38;1.73;;;13.60;99.90;;;;;;4892813;29;20044;-88
2021/05/13 13:19:22;;;;;;;5.78;2.30;;;13.50;99.90;;;;;;4895608;29;20056;-89
2021/05/13 13:22:03;;;;;;;8.27;2.40;;;13.60;99.90;;;;;;4893077;29;20056;-88
2021/05/13 13:24:33;;;;;;;5.82;1.90;;;13.50;99.90;;;;;;4918538;29;20060;-90
2021/05/13 13:27:03;;;;;;;9.38;2.47;;;13.50;99.90;;;;;;4881873;29;20063;-89
2021/05/13 13:29:31;;;;;;;3.53;1.80;;;13.50;99.90;;;;;;4876572;29;20076;-89
2021/05/13 13:32:03;;;;;;;5.45;1.70;;;13.40;99.90;;;;;;4879260;29;20507;-90
2021/05/13 13:34:39;;;;;;;7.05;1.50;;;13.60;99.90;;;;;;4895381;29;20056;-85
2021/05/13 13:37:07;;;;;;;6.95;2.70;;;13.60;99.90;;;;;;4904658;29;20083;-86
2021/05/13 13:39:35;;;;;;;2.15;1.30;;;13.70;99.90;;;;;;4901463;29;20056;-88